Time;durP1;ratioP1;P1;durP2;ratioP2;P2;SDS_P1;SDS_P2;PMS_P1;PMS_P2;Temp;Humidity;BMP_temperature;BMP_pressure;BME280_temperature;BME280_humidity;BME280_pressure;Samples;Min_cycle;Max_cycle;Signal;HPM_P1;HPM_P2
2021/11/02 00:01:05;;;;;;;;;4.25;4.25;;;;;12.90;65.77;99659.59;5059579;28;45607;-69
2021/11/02 00:03:31;;;;;;;;;6.75;4.00;;;;;12.89;66.14;99649.81;5059007;28;45281;-69
2021/11/02 00:05:57;;;;;;;;;3.00;3.00;;;;;12.93;65.81;99664.75;5059533;28;45238;-69
2021/11/02 00:08:22;;;;;;;;;3.75;2.75;;;;;12.90;66.11;99648.88;5059502;28;45247;-69
2021/11/02 00:10:48;;;;;;;;;3.00;3.00;;;;;12.91;66.09;99656.81;5059107;28;45519;-69
2021/11/02 00:13:14;;;;;;;;;2.50;2.00;;;;;12.92;65.83;99646.97;5059376;28;46219;-69
2021/11/02 00:15:42;;;;;;;;;2.50;2.50;;;;;12.92;65.81;99646.97;5059294;28;45264;-69
2021/11/02 00:18:08;;;;;;;;;2.00;2.00;;;;;12.91;65.84;99656.81;5046579;28;45432;-68
2021/11/02 00:20:34;;;;;;;;;1.75;1.75;;;;;12.90;65.86;99649.72;5058972;28;46449;-69
2021/11/02 00:23:02;;;;;;;;;2.25;2.25;;;;;12.89;66.00;99650.66;5059150;28;45349;-69
2021/11/02 00:25:32;;;;;;;;;2.00;2.00;;;;;12.87;65.88;99644.56;5059190;28;45199;-69
2021/11/02 00:28:00;;;;;;;;;3.25;2.00;;;;;12.85;66.45;99640.25;5059560;28;45382;-69
2021/11/02 00:30:26;;;;;;;;;3.75;2.00;;;;;12.87;66.08;99639.19;5058657;28;45204;-69
2021/11/02 00:32:55;;;;;;;;;2.00;2.00;;;;;12.81;66.33;99633.34;5045984;28;45278;-69
2021/11/02 00:35:21;;;;;;;;;1.25;1.00;;;;;12.84;66.14;99639.38;5059126;28;45200;-69
2021/11/02 00:37:47;;;;;;;;;3.25;3.00;;;;;12.79;66.34;99631.59;5059234;28;45362;-69
2021/11/02 00:40:14;;;;;;;;;2.00;2.00;;;;;12.84;66.24;99641.19;5060025;28;45434;-69
2021/11/02 00:42:49;;;;;;;;;2.00;2.00;;;;;12.78;66.22;99631.72;5054564;28;46398;-69
2021/11/02 00:45:17;;;;;;;;;2.00;1.00;;;;;12.77;66.31;99633.53;5058212;28;45327;-69
2021/11/02 00:47:42;;;;;;;;;2.00;2.00;;;;;12.81;66.35;99628.84;5052680;28;45349;-69
2021/11/02 00:50:10;;;;;;;;;3.00;3.00;;;;;12.81;66.30;99628.84;5058099;28;45237;-68
2021/11/02 00:52:42;;;;;;;;;2.00;2.00;;;;;12.84;66.37;99625.13;5062206;28;46413;-69
2021/11/02 00:55:09;;;;;;;;;1.00;1.00;;;;;12.85;66.21;99614.31;5062230;28;45410;-68
2021/11/02 00:57:35;;;;;;;;;2.50;2.00;;;;;12.83;66.17;99612.69;5062208;28;45267;-69
2021/11/02 01:00:01;;;;;;;;;2.00;1.00;;;;;12.82;66.35;99617.19;5062091;28;45270;-69
2021/11/02 01:02:26;;;;;;;;;2.25;2.00;;;;;12.78;65.92;99610.31;5062178;28;45366;-69
2021/11/02 01:04:52;;;;;;;;;2.00;1.75;;;;;12.74;66.35;99596.22;5061930;28;45298;-69
2021/11/02 01:07:17;;;;;;;;;3.25;2.00;;;;;12.77;66.45;99596.03;5062152;28;45398;-69
2021/11/02 01:09:43;;;;;;;;;0.25;0.25;;;;;12.79;66.37;99604.81;5061838;28;45307;-68
2021/11/02 01:12:10;;;;;;;;;2.00;2.00;;;;;12.81;66.55;99606.56;5049898;28;47393;-69
2021/11/02 01:14:37;;;;;;;;;1.00;0.75;;;;;12.79;66.41;99610.19;5059834;28;45256;-69
2021/11/02 01:17:03;;;;;;;;;2.50;1.00;;;;;12.81;66.58;99607.41;5061946;28;45362;-69
2021/11/02 01:19:28;;;;;;;;;0.50;0.50;;;;;12.75;66.57;99602.44;5061587;28;45342;-69
2021/11/02 01:21:54;;;;;;;;;0.00;0.00;;;;;12.76;66.63;99602.34;5062037;28;46267;-69
2021/11/02 01:24:21;;;;;;;;;1.00;1.00;;;;;12.80;66.57;99603.03;5061594;28;45417;-69
2021/11/02 01:26:46;;;;;;;;;2.00;1.00;;;;;12.79;66.54;99599.47;5061996;28;45549;-69
2021/11/02 01:29:12;;;;;;;;;2.25;1.75;;;;;12.77;66.71;99606.75;5061014;28;45291;-69
2021/11/02 01:31:38;;;;;;;;;1.50;1.50;;;;;12.72;66.48;99591.91;5054440;28;45656;-69
2021/11/02 01:34:03;;;;;;;;;1.75;1.00;;;;;12.76;66.56;99593.44;5061679;28;45385;-69
2021/11/02 01:36:29;;;;;;;;;1.75;1.50;;;;;12.77;66.49;99601.38;5061824;28;45358;-69
2021/11/02 01:38:55;;;;;;;;;2.75;2.50;;;;;12.76;66.62;99596.13;5059621;28;45533;-69
2021/11/02 01:41:25;;;;;;;;;1.50;1.00;;;;;12.75;66.63;99597.94;5061606;28;45374;-69
2021/11/02 01:43:50;;;;;;;;;1.00;1.00;;;;;12.72;66.43;99589.22;5057563;28;45512;-69
2021/11/02 01:46:28;;;;;;;;;1.00;1.00;;;;;12.76;66.64;99593.44;5045806;28;45752;-69
2021/11/02 01:48:55;;;;;;;;;2.00;2.00;;;;;12.73;66.40;99588.25;5059808;28;45482;-69
2021/11/02 01:51:22;;;;;;;;;1.50;1.00;;;;;12.74;66.54;99595.34;5061192;28;45405;-69
2021/11/02 01:53:48;;;;;;;;;3.00;2.00;;;;;12.74;66.66;99593.53;5061260;28;45560;-69
2021/11/02 01:56:14;;;;;;;;;4.50;1.50;;;;;12.75;66.60;99600.63;5061561;28;45551;-69
2021/11/02 01:58:43;;;;;;;;;1.75;1.75;;;;;12.72;66.58;99594.59;5047822;28;45232;-69
2021/11/02 02:01:13;;;;;;;;;1.50;1.00;;;;;12.75;66.64;99595.25;5061069;28;46956;-69
2021/11/02 02:03:51;;;;;;;;;1.00;1.00;;;;;12.78;66.78;99608.47;5048985;28;45501;-69
2021/11/02 02:06:35;;;;;;;;;3.75;2.00;;;;;12.76;66.73;99597.00;5059896;28;45390;-69
2021/11/02 02:09:22;;;;;;;;;1.25;1.25;;;;;12.76;66.69;99605.03;5060996;28;45341;-69
2021/11/02 02:12:16;;;;;;;;;2.00;1.00;;;;;12.76;66.61;99604.16;5049425;28;45471;-69
2021/11/02 02:14:51;;;;;;;;;1.00;1.00;;;;;12.74;66.65;99593.53;5061033;28;45479;-69
2021/11/02 02:17:22;;;;;;;;;2.00;1.00;;;;;12.74;66.69;99604.25;5061032;28;45441;-69
2021/11/02 02:20:01;;;;;;;;;1.00;1.00;;;;;12.75;66.65;99605.13;5060856;28;45346;-69
2021/11/02 02:22:35;;;;;;;;;2.00;2.00;;;;;12.76;66.68;99602.34;5060826;28;45426;-69
2021/11/02 02:25:16;;;;;;;;;1.75;1.00;;;;;12.77;67.02;99605.88;5059757;28;45727;-69
2021/11/02 02:27:54;;;;;;;;;2.00;2.00;;;;;12.75;66.90;99600.63;5061021;28;45359;-69
2021/11/02 02:30:19;;;;;;;;;1.00;1.00;;;;;12.75;66.80;99595.25;5059447;28;45353;-69
2021/11/02 02:32:49;;;;;;;;;1.75;1.00;;;;;12.76;66.97;99602.34;5047099;28;45974;-69
2021/11/02 02:35:18;;;;;;;;;1.25;1.25;;;;;12.78;66.88;99592.41;5056142;28;45361;-69
2021/11/02 02:37:46;;;;;;;;;3.00;1.25;;;;;12.80;66.81;99600.34;5047719;28;45307;-69
2021/11/02 02:40:12;;;;;;;;;1.75;1.00;;;;;12.77;66.78;99592.50;5056324;28;45457;-70
2021/11/02 02:42:38;;;;;;;;;3.00;2.00;;;;;12.79;66.99;99593.25;5060750;28;45350;-69
2021/11/02 02:45:07;;;;;;;;;3.00;2.00;;;;;12.76;66.91;99585.41;5059125;28;45869;-69
2021/11/02 02:47:34;;;;;;;;;1.00;1.00;;;;;12.77;66.78;99595.19;5049813;28;45433;-69
2021/11/02 02:50:02;;;;;;;;;1.00;1.00;;;;;12.73;66.85;99591.81;5060258;28;45224;-69
2021/11/02 02:52:29;;;;;;;;;2.00;2.00;;;;;12.76;67.12;99596.13;5059176;28;47289;-69
2021/11/02 02:54:56;;;;;;;;;1.25;1.25;;;;;12.75;66.94;99581.88;5060499;28;45325;-69
2021/11/02 02:57:24;;;;;;;;;4.75;1.00;;;;;12.78;66.78;99586.19;5060591;28;45255;-69
2021/11/02 02:59:51;;;;;;;;;1.00;1.00;;;;;12.78;67.05;99580.84;5060116;28;45366;-69
2021/11/02 03:02:19;;;;;;;;;5.25;1.75;;;;;12.79;67.09;99586.06;5059416;28;45405;-69
2021/11/02 03:04:47;;;;;;;;;1.00;1.00;;;;;12.78;66.92;99580.84;5060000;28;45361;-69
2021/11/02 03:07:16;;;;;;;;;1.25;1.25;;;;;12.76;66.78;99586.28;5060665;28;45229;-69
2021/11/02 03:09:42;;;;;;;;;0.25;0.25;;;;;12.75;67.16;99570.31;5059526;28;45562;-69
2021/11/02 03:12:11;;;;;;;;;1.50;1.50;;;;;12.79;67.08;99574.50;5048915;28;45385;-69
2021/11/02 03:17:30;;;;;;;;;1.00;1.00;;;;;12.80;67.02;99576.25;5059797;28;45557;-69
2021/11/02 03:55:28;;;;;;;;;2.00;1.00;;;;;12.78;67.23;99586.19;5059557;28;45726;-69
2021/11/02 03:57:59;;;;;;;;;2.00;2.00;;;;;12.81;67.36;99588.66;5059359;28;45410;-69
2021/11/02 04:28:20;;;;;;;;;1.00;1.00;;;;;12.83;67.20;99594.81;5052210;28;45859;-69
2021/11/02 04:31:15;;;;;;;;;1.25;1.25;;;;;12.78;67.25;99589.72;5059784;28;45463;-69
2021/11/02 05:47:10;;;;;;;;;1.00;1.00;;;;;12.87;66.79;99604.38;5052075;28;45393;-69
2021/11/02 06:00:28;;;;;;;;;0.50;0.50;;;;;12.88;66.37;99608.78;5061128;28;45330;-69
2021/11/02 06:07:56;;;;;;;;;1.00;1.00;;;;;12.88;66.46;99600.75;5060893;28;45231;-69
2021/11/02 06:29:51;;;;;;;;;0.00;0.00;;;;;12.72;65.91;99632.06;5060650;28;45214;-69
2021/11/02 06:32:25;;;;;;;;;1.00;1.00;;;;;12.66;65.78;99622.56;5047471;28;45317;-69
2021/11/02 06:35:08;;;;;;;;;1.00;1.00;;;;;12.72;66.12;99640.09;5060728;28;45452;-69
2021/11/02 06:56:48;;;;;;;;;2.00;1.00;;;;;12.75;65.23;99653.31;5060631;28;45470;-69
2021/11/02 07:16:10;;;;;;;;;0.00;0.00;;;;;12.73;64.55;99664.13;5052484;28;45339;-71
2021/11/02 07:18:37;;;;;;;;;0.75;0.75;;;;;12.79;64.92;99673.59;5057358;28;45402;-71
2021/11/02 07:21:11;;;;;;;;;0.00;0.00;;;;;12.78;64.86;99671.88;5059610;28;46160;-71
2021/11/02 08:48:01;;;;;;;;;2.00;0.75;;;;;12.78;64.60;99747.72;5059867;28;45580;-70
2021/11/02 08:50:31;;;;;;;;;1.00;1.00;;;;;12.79;64.01;99753.94;5059261;28;47055;-71
2021/11/02 08:53:15;;;;;;;;;0.00;0.00;;;;;12.76;64.17;99752.31;5060109;28;45519;-70
2021/11/02 08:55:41;;;;;;;;;1.50;0.00;;;;;12.78;63.96;99757.59;5061024;28;45473;-70
2021/11/02 08:58:07;;;;;;;;;1.25;0.00;;;;;12.77;63.82;99758.53;5059777;28;45669;-70
2021/11/02 09:00:34;;;;;;;;;0.00;0.00;;;;;12.77;64.04;99761.19;5057253;28;45713;-70
2021/11/02 09:03:24;;;;;;;;;1.75;1.00;;;;;12.77;63.96;99763.88;5051246;28;45292;-70
2021/11/02 09:05:53;;;;;;;;;2.00;2.00;;;;;12.83;63.87;99766.22;5061121;28;45362;-71
2021/11/02 09:08:21;;;;;;;;;1.50;1.00;;;;;12.79;63.70;99751.25;5050632;28;45330;-70
2021/11/02 09:10:48;;;;;;;;;0.00;0.00;;;;;12.86;63.61;99765.16;5060379;28;45421;-68
2021/11/02 09:13:15;;;;;;;;;2.25;0.00;;;;;12.82;63.76;99756.44;5061824;28;45627;-70
2021/11/02 09:15:41;;;;;;;;;0.00;0.00;;;;;12.82;63.61;99766.31;5060056;28;45669;-70
2021/11/02 09:18:10;;;;;;;;;0.50;0.50;;;;;12.81;63.58;99760.06;5061302;28;46109;-69
2021/11/02 09:20:37;;;;;;;;;1.75;0.00;;;;;12.80;63.59;99761.03;5061929;28;47121;-69
2021/11/02 09:23:04;;;;;;;;;1.50;1.50;;;;;12.79;63.48;99752.09;5061198;28;45663;-69
2021/11/02 09:25:30;;;;;;;;;0.25;0.25;;;;;12.81;63.07;99753.84;5061329;28;45383;-69
2021/11/02 09:27:56;;;;;;;;;1.00;0.00;;;;;12.89;63.23;99756.94;5061009;28;45624;-69
2021/11/02 09:30:23;;;;;;;;;1.00;1.00;;;;;12.87;63.10;99751.69;5058559;28;45466;-69
2021/11/02 09:32:51;;;;;;;;;4.00;2.50;;;;;12.89;63.33;99747.09;5059710;28;45960;-69
2021/11/02 09:35:18;;;;;;;;;2.75;1.50;;;;;12.95;63.10;99761.97;5061627;28;45403;-69
2021/11/02 09:38:08;;;;;;;;;0.00;0.00;;;;;12.98;62.90;99759.13;5061083;28;45322;-69
2021/11/02 09:41:09;;;;;;;;;0.00;0.00;;;;;12.98;63.12;99749.25;5049785;28;45578;-69
2021/11/02 09:43:54;;;;;;;;;0.75;0.75;;;;;13.00;63.22;99749.16;5051203;28;45311;-69
2021/11/02 09:46:19;;;;;;;;;1.50;1.00;;;;;13.03;63.03;99761.50;5059727;28;45507;-69
2021/11/02 09:49:26;;;;;;;;;1.75;1.00;;;;;13.02;62.59;99757.97;5061371;28;45459;-69
2021/11/02 09:52:28;;;;;;;;;2.00;2.00;;;;;13.07;62.89;99757.72;5050305;28;45417;-69
2021/11/02 09:55:33;;;;;;;;;1.00;1.00;;;;;13.04;63.13;99757.88;5053826;28;45516;-69
2021/11/02 09:58:13;;;;;;;;;1.00;1.00;;;;;13.11;62.47;99767.28;5049989;28;45383;-69
2021/11/02 10:00:40;;;;;;;;;0.75;0.75;;;;;13.12;62.46;99774.38;5059965;28;45407;-68
2021/11/02 10:03:43;;;;;;;;;0.00;0.00;;;;;13.11;62.51;99765.47;5059295;28;45373;-68
2021/11/02 10:06:19;;;;;;;;;0.00;0.00;;;;;13.11;62.53;99765.47;5051166;28;45672;-70
2021/11/02 10:08:53;;;;;;;;;0.00;0.00;;;;;13.14;62.41;99772.47;5060667;28;45380;-69
2021/11/02 10:11:51;;;;;;;;;0.00;0.00;;;;;13.16;62.39;99768.75;5059857;28;45410;-70
2021/11/02 10:15:03;;;;;;;;;1.00;0.00;;;;;13.19;62.10;99777.56;5051349;28;46380;-72
2021/11/02 10:17:54;;;;;;;;;2.00;0.00;;;;;13.20;62.20;99777.47;5031901;28;45918;-70
2021/11/02 10:20:54;;;;;;;;;0.50;0.50;;;;;13.22;62.33;99782.75;5042775;28;45499;-69
2021/11/02 10:23:50;;;;;;;;;0.75;0.75;;;;;13.23;62.28;99788.00;5058970;28;45476;-70
2021/11/02 10:26:43;;;;;;;;;1.00;1.00;;;;;13.24;62.09;99791.53;5059722;28;45664;-69
2021/11/02 10:29:42;;;;;;;;;1.00;1.00;;;;;13.25;61.98;99798.66;5053595;28;45461;-70
2021/11/02 10:32:12;;;;;;;;;0.00;0.00;;;;;13.27;61.95;99799.41;5063977;28;45382;-69
2021/11/02 10:34:54;;;;;;;;;0.50;0.50;;;;;13.27;62.05;99794.91;5055405;28;45675;-70
2021/11/02 10:37:54;;;;;;;;;0.00;0.00;;;;;13.29;61.92;99794.81;5056665;28;45405;-70
2021/11/02 10:40:36;;;;;;;;;1.00;1.00;;;;;13.29;62.41;99802.84;5048962;28;45341;-70
2021/11/02 10:43:04;;;;;;;;;1.00;1.00;;;;;13.28;62.23;99799.31;5058356;28;45529;-70
2021/11/02 10:45:30;;;;;;;;;1.25;1.25;;;;;13.28;62.06;99803.81;5058075;28;45698;-70
2021/11/02 10:48:10;;;;;;;;;2.75;0.75;;;;;13.27;61.93;99800.28;5040108;28;47226;-70
2021/11/02 10:50:43;;;;;;;;;0.00;0.00;;;;;13.28;62.00;99799.31;5055658;28;45410;-70
2021/11/02 10:53:09;;;;;;;;;1.00;1.00;;;;;13.33;62.14;99791.91;5059843;28;45477;-71
2021/11/02 10:55:57;;;;;;;;;0.00;0.00;;;;;13.33;62.33;99791.03;5058380;28;45536;-71
2021/11/02 10:58:37;;;;;;;;;1.00;0.00;;;;;13.39;62.13;99792.50;5059794;28;45445;-70
2021/11/02 11:01:10;;;;;;;;;0.25;0.25;;;;;13.41;61.98;99788.75;5047344;28;45665;-71
2021/11/02 11:03:37;;;;;;;;;1.75;1.00;;;;;13.44;61.91;99787.72;5041988;28;45965;-70
2021/11/02 11:06:05;;;;;;;;;0.75;0.00;;;;;13.44;61.97;99787.72;5058260;28;45785;-71
2021/11/02 11:08:35;;;;;;;;;0.00;0.00;;;;;13.45;61.74;99779.59;5058420;28;46040;-70
2021/11/02 11:11:06;;;;;;;;;1.00;1.00;;;;;13.51;61.70;99784.59;5057806;28;45355;-70
2021/11/02 11:13:32;;;;;;;;;0.75;0.75;;;;;13.56;61.65;99780.75;5058684;28;45438;-71
2021/11/02 11:16:06;;;;;;;;;3.00;1.00;;;;;13.56;61.78;99784.31;5057761;28;45484;-71
2021/11/02 11:18:53;;;;;;;;;0.00;0.00;;;;;13.57;61.87;99780.69;5050915;28;45447;-71
2021/11/02 11:21:24;;;;;;;;;1.00;1.00;;;;;13.58;61.40;99777.06;5053460;28;45674;-71
2021/11/02 11:24:06;;;;;;;;;0.50;0.50;;;;;13.55;61.00;99768.31;5057696;28;45645;-71
2021/11/02 11:26:32;;;;;;;;;1.75;0.75;;;;;13.60;61.45;99777.81;5056643;28;45451;-71
2021/11/02 11:28:59;;;;;;;;;1.50;1.00;;;;;13.57;61.18;99763.72;5057765;28;46271;-71
2021/11/02 11:31:27;;;;;;;;;1.50;0.00;;;;;13.61;61.11;99763.44;5056737;28;45442;-69
2021/11/02 11:34:00;;;;;;;;;1.00;1.00;;;;;13.65;61.60;99769.50;5057870;28;45493;-71
2021/11/02 11:36:28;;;;;;;;;3.00;1.25;;;;;13.65;61.09;99764.13;5058379;28;45472;-71
2021/11/02 11:38:59;;;;;;;;;1.00;1.00;;;;;13.71;61.16;99769.09;5055661;28;47162;-71
2021/11/02 11:41:27;;;;;;;;;1.25;1.00;;;;;13.63;60.91;99756.19;5056931;27;45444;-71
2021/11/02 11:43:54;;;;;;;;;2.00;1.00;;;;;13.71;60.99;99769.09;5047980;28;45351;-70
2021/11/02 11:46:19;;;;;;;;;1.00;0.00;;;;;13.73;60.88;99769.88;5042497;28;45679;-69
2021/11/02 11:48:53;;;;;;;;;2.00;0.75;;;;;13.73;60.68;99755.59;5054151;28;45941;-70
2021/11/02 11:51:23;;;;;;;;;2.00;1.00;;;;;13.77;60.76;99765.19;5050345;28;45753;-70
2021/11/02 11:53:57;;;;;;;;;2.50;1.00;;;;;13.75;60.50;99759.03;5045067;28;45468;-71
2021/11/02 11:56:23;;;;;;;;;0.00;0.00;;;;;13.76;60.19;99758.94;5054178;28;45674;-70
2021/11/02 11:58:54;;;;;;;;;0.75;0.75;;;;;13.75;60.57;99753.69;5042611;28;45536;-71
2021/11/02 12:01:38;;;;;;;;;1.00;1.00;;;;;13.76;60.78;99755.41;5044006;28;45556;-70
2021/11/02 12:04:09;;;;;;;;;0.00;0.00;;;;;13.74;60.08;99754.66;5052081;28;45448;-73
2021/11/02 12:07:20;;;;;;;;;0.75;0.75;;;;;13.73;60.41;99751.09;5054102;28;45434;-68
2021/11/02 12:09:46;;;;;;;;;2.00;1.00;;;;;13.73;60.64;99745.72;5011333;28;45770;-69
2021/11/02 12:12:13;;;;;;;;;0.00;0.00;;;;;13.77;60.44;99746.44;5035324;28;45458;-69
2021/11/02 12:14:46;;;;;;;;;0.25;0.25;;;;;13.79;60.57;99737.31;5049311;28;45756;-69
2021/11/02 12:17:17;;;;;;;;;3.00;2.00;;;;;13.83;60.29;99732.63;5050399;28;45821;-69
2021/11/02 12:20:09;;;;;;;;;0.75;0.75;;;;;13.88;60.20;99738.56;5053108;28;46334;-69
2021/11/02 12:22:49;;;;;;;;;0.00;0.00;;;;;13.84;60.11;99729.00;5054978;28;46098;-69
2021/11/02 12:25:26;;;;;;;;;1.00;1.00;;;;;13.84;60.33;99727.16;5059962;28;45497;-69
2021/11/02 12:27:53;;;;;;;;;0.75;0.75;;;;;13.87;60.32;99728.81;5055069;27;45554;-70
2021/11/02 12:30:21;;;;;;;;;0.50;0.50;;;;;13.84;60.32;99727.16;5054280;28;45981;-68
2021/11/02 12:32:55;;;;;;;;;1.00;1.00;;;;;13.90;60.22;99733.97;5052510;28;45832;-68
2021/11/02 12:35:32;;;;;;;;;0.00;0.00;;;;;13.85;59.87;99726.22;5054687;28;45501;-69
2021/11/02 12:38:01;;;;;;;;;2.50;1.00;;;;;13.82;59.51;99725.53;5056742;28;45896;-68
2021/11/02 12:40:31;;;;;;;;;0.00;0.00;;;;;13.78;60.13;99715.94;5057082;28;46199;-68
2021/11/02 12:42:56;;;;;;;;;1.00;1.00;;;;;13.86;60.14;99724.38;5057456;28;45516;-68
2021/11/02 12:45:25;;;;;;;;;0.50;0.50;;;;;13.88;59.89;99725.13;5058355;28;45671;-68
2021/11/02 12:47:54;;;;;;;;;0.00;0.00;;;;;13.84;60.27;99704.84;5050653;28;45621;-68
2021/11/02 12:50:21;;;;;;;;;1.00;1.00;;;;;13.90;59.69;99712.53;5057431;28;45926;-68
2021/11/02 12:52:48;;;;;;;;;0.00;0.00;;;;;13.87;60.18;99705.50;5057808;28;45512;-68
2021/11/02 12:55:19;;;;;;;;;1.00;0.00;;;;;13.93;59.86;99706.94;5057049;28;45890;-67
2021/11/02 12:57:53;;;;;;;;;0.00;0.00;;;;;13.97;59.74;99702.25;5047311;28;45528;-67
2021/11/02 13:00:26;;;;;;;;;1.25;0.00;;;;;13.96;59.94;99703.22;5057193;28;45946;-72
2021/11/02 13:02:57;;;;;;;;;1.00;0.00;;;;;13.99;59.33;99705.72;5055694;28;45755;-69
2021/11/02 13:05:25;;;;;;;;;0.00;0.00;;;;;13.98;59.01;99701.28;5052939;28;45616;-68
2021/11/02 13:08:03;;;;;;;;;2.00;0.75;;;;;13.94;59.13;99700.63;5051895;28;45589;-68
2021/11/02 13:10:31;;;;;;;;;1.00;0.50;;;;;13.95;59.30;99701.47;5050902;28;45565;-68
2021/11/02 13:13:07;;;;;;;;;1.50;0.75;;;;;13.98;59.17;99695.91;5061516;28;45685;-68
2021/11/02 13:15:50;;;;;;;;;0.00;0.00;;;;;13.97;59.33;99695.06;5059857;28;45477;-68
2021/11/02 13:18:38;;;;;;;;;1.00;0.25;;;;;13.96;59.38;99679.91;5060435;28;45421;-68
2021/11/02 13:21:08;;;;;;;;;0.00;0.00;;;;;14.03;59.26;99688.44;5060409;28;46027;-68
2021/11/02 13:23:39;;;;;;;;;1.00;1.00;;;;;14.02;59.34;99681.38;5060793;28;45778;-68
2021/11/02 13:26:21;;;;;;;;;2.00;0.25;;;;;14.08;59.21;99687.22;5060187;28;45381;-68
2021/11/02 13:28:48;;;;;;;;;1.00;1.00;;;;;14.08;59.26;99691.69;5060304;28;45581;-68
2021/11/02 13:31:31;;;;;;;;;1.00;1.00;;;;;14.04;59.26;99691.03;5060553;28;45437;-68
2021/11/02 13:34:02;;;;;;;;;0.00;0.00;;;;;14.07;58.67;99693.53;5048471;28;45516;-68
2021/11/02 13:36:29;;;;;;;;;0.00;0.00;;;;;14.05;59.25;99690.09;5059745;28;45491;-69
2021/11/02 13:39:06;;;;;;;;;2.00;1.25;;;;;14.08;59.18;99691.69;5060676;28;46075;-69
2021/11/02 13:41:55;;;;;;;;;1.00;1.00;;;;;14.07;59.38;99671.19;5056705;28;45504;-69
2021/11/02 13:44:20;;;;;;;;;0.00;0.00;;;;;14.08;59.23;99671.09;5055472;28;45688;-69
2021/11/02 13:46:52;;;;;;;;;0.25;0.25;;;;;14.07;58.75;99672.06;5058410;28;45582;-68
2021/11/02 13:49:19;;;;;;;;;0.50;0.00;;;;;14.08;58.70;99679.16;5060574;28;45173;-70
2021/11/02 13:51:45;;;;;;;;;0.00;0.00;;;;;14.02;58.80;99655.38;5060271;28;46326;-70
2021/11/02 13:54:11;;;;;;;;;0.75;0.75;;;;;14.07;58.85;99665.84;5060739;28;45216;-70
2021/11/02 13:56:40;;;;;;;;;1.00;1.00;;;;;14.06;59.16;99667.63;5058522;28;45446;-70
2021/11/02 13:59:06;;;;;;;;;5.00;3.00;;;;;14.11;59.00;99661.13;5059302;28;45437;-70
2021/11/02 14:01:52;;;;;;;;;0.00;0.00;;;;;14.18;58.88;99673.19;5058926;28;46595;-69
2021/11/02 14:04:40;;;;;;;;;0.00;0.00;;;;;14.14;58.22;99672.53;5061868;28;45489;-69
2021/11/02 14:07:32;;;;;;;;;1.00;1.00;;;;;14.14;59.02;99688.63;5059560;28;45749;-69
2021/11/02 14:10:01;;;;;;;;;1.00;1.00;;;;;14.13;58.40;99678.84;5053245;28;46440;-69
2021/11/02 14:12:32;;;;;;;;;1.00;1.00;;;;;14.11;58.86;99664.66;5060096;28;45525;-69
2021/11/02 14:15:10;;;;;;;;;1.00;0.00;;;;;14.14;58.52;99669.00;5060367;27;45178;-69
2021/11/02 14:17:39;;;;;;;;;0.00;0.00;;;;;14.09;59.04;99651.34;5059612;28;45508;-69
2021/11/02 14:20:06;;;;;;;;;2.00;1.00;;;;;14.15;58.49;99655.47;5060218;28;45532;-69
2021/11/02 14:22:44;;;;;;;;;1.00;1.00;;;;;14.15;59.16;99657.28;5058622;28;48323;-69
2021/11/02 14:25:21;;;;;;;;;0.00;0.00;;;;;14.17;58.70;99663.44;5059454;28;45584;-71
2021/11/02 14:27:52;;;;;;;;;1.50;1.50;;;;;14.21;58.77;99667.63;5059861;28;45398;-69
2021/11/02 14:30:32;;;;;;;;;1.00;1.00;;;;;14.21;59.07;99665.78;5059759;28;45320;-70
2021/11/02 14:32:58;;;;;;;;;1.25;0.75;;;;;14.20;58.93;99673.94;5058072;28;47386;-69
2021/11/02 14:35:38;;;;;;;;;1.00;1.00;;;;;14.20;59.17;99680.19;5059835;28;45496;-69
2021/11/02 14:38:22;;;;;;;;;0.75;0.75;;;;;14.19;59.26;99665.03;5059457;28;45596;-69
2021/11/02 14:40:49;;;;;;;;;2.00;1.00;;;;;14.22;59.35;99672.03;5057841;28;45481;-70
2021/11/02 14:43:15;;;;;;;;;1.25;1.25;;;;;14.23;59.23;99663.00;5056421;28;46281;-69
2021/11/02 14:45:45;;;;;;;;;2.50;1.25;;;;;14.22;59.19;99661.31;5059166;28;45387;-70
2021/11/02 14:48:22;;;;;;;;;16.75;13.00;;;;;14.21;59.17;99671.16;5040091;28;45466;-70
2021/11/02 14:50:51;;;;;;;;;11.25;11.25;;;;;14.23;59.48;99668.38;5057032;28;45237;-70
2021/11/02 14:53:27;;;;;;;;;2.00;2.00;;;;;14.25;58.87;99674.53;5059585;28;46516;-69
2021/11/02 14:56:06;;;;;;;;;1.00;1.00;;;;;14.25;58.82;99661.97;5056651;28;45708;-69
2021/11/02 14:58:40;;;;;;;;;0.50;0.50;;;;;14.27;58.76;99665.41;5050131;28;45428;-70
2021/11/02 15:01:30;;;;;;;;;1.25;1.25;;;;;14.26;58.84;99657.44;5053911;28;45497;-70
2021/11/02 15:03:58;;;;;;;;;1.00;1.00;;;;;14.29;59.05;99661.78;5058368;28;46219;-70
2021/11/02 15:06:33;;;;;;;;;0.75;0.75;;;;;14.30;58.78;99663.47;5057374;28;45504;-70
2021/11/02 15:09:00;;;;;;;;;0.00;0.00;;;;;14.28;58.62;99660.88;5059640;28;45477;-69
2021/11/02 15:11:26;;;;;;;;;0.75;0.00;;;;;14.30;58.24;99663.47;5057047;28;45605;-69
2021/11/02 15:13:55;;;;;;;;;0.00;0.00;;;;;14.30;58.31;99660.78;5059627;28;47251;-69
2021/11/02 15:16:22;;;;;;;;;0.50;0.50;;;;;14.28;58.53;99655.50;5058891;28;45577;-70
2021/11/02 15:19:06;;;;;;;;;3.00;1.00;;;;;14.26;58.74;99646.72;5059416;28;45443;-70
2021/11/02 15:21:33;;;;;;;;;0.50;0.50;;;;;14.29;58.55;99657.25;5059505;28;45323;-70
2021/11/02 15:24:06;;;;;;;;;0.00;0.00;;;;;14.30;58.77;99655.41;5057888;28;47670;-67
2021/11/02 15:26:42;;;;;;;;;1.00;1.00;;;;;14.24;59.14;99644.13;5058707;28;45515;-65
2021/11/02 15:29:09;;;;;;;;;4.00;1.00;;;;;14.25;59.04;99648.53;5059260;28;45594;-65
2021/11/02 15:31:34;;;;;;;;;2.00;1.00;;;;;14.22;59.03;99637.16;5055755;28;45536;-65
2021/11/02 15:34:14;;;;;;;;;1.00;0.00;;;;;14.25;58.91;99637.81;5058434;28;45387;-65
2021/11/02 15:36:41;;;;;;;;;1.00;1.00;;;;;14.23;59.34;99638.84;5058290;28;45692;-65
2021/11/02 15:39:08;;;;;;;;;2.25;1.00;;;;;14.19;59.20;99632.81;5058842;28;45369;-65
2021/11/02 15:41:34;;;;;;;;;2.50;1.00;;;;;14.22;59.26;99645.19;5058100;28;45333;-65
2021/11/02 15:44:04;;;;;;;;;1.75;1.75;;;;;14.23;59.48;99642.41;5058301;28;46129;-64
2021/11/02 15:46:41;;;;;;;;;2.00;2.00;;;;;14.23;59.32;99641.53;5054985;28;45703;-65
2021/11/02 15:49:13;;;;;;;;;1.00;1.00;;;;;14.21;59.30;99638.94;5049567;28;45383;-65
2021/11/02 15:51:40;;;;;;;;;7.75;5.75;;;;;14.23;59.31;99642.41;5057684;28;45409;-65
2021/11/02 15:54:15;;;;;;;;;3.50;2.00;;;;;14.22;59.22;99638.00;5058124;28;45445;-65
2021/11/02 15:56:41;;;;;;;;;3.50;3.00;;;;;14.23;59.29;99636.16;5045459;28;45688;-65
2021/11/02 15:59:09;;;;;;;;;3.00;3.00;;;;;14.24;59.53;99640.59;5058475;28;45371;-65
2021/11/02 16:01:44;;;;;;;;;6.00;2.00;;;;;14.22;59.37;99634.47;5051947;28;45531;-65
2021/11/02 16:04:23;;;;;;;;;4.00;4.00;;;;;14.19;59.60;99634.66;5058202;28;46943;-68
2021/11/02 16:06:59;;;;;;;;;2.00;2.00;;;;;14.21;59.41;99633.59;5046681;28;45345;-66
2021/11/02 16:09:44;;;;;;;;;1.75;1.00;;;;;14.20;59.39;99636.38;5058239;28;45580;-66
2021/11/02 16:12:22;;;;;;;;;5.50;3.25;;;;;14.18;59.65;99632.94;5061990;28;45500;-65
2021/11/02 16:14:58;;;;;;;;;4.00;4.00;;;;;14.13;59.42;99625.16;5053909;28;45476;-65
2021/11/02 16:17:25;;;;;;;;;3.00;3.00;;;;;14.14;59.35;99626.06;5061305;28;45381;-65
2021/11/02 16:19:54;;;;;;;;;2.75;2.75;;;;;14.13;59.35;99622.47;5062016;28;45370;-65
2021/11/02 16:22:21;;;;;;;;;3.75;2.50;;;;;14.16;59.14;99629.50;5060948;28;45933;-65
2021/11/02 16:25:00;;;;;;;;;7.00;6.00;;;;;14.12;59.28;99618.09;5061604;28;45311;-65
2021/11/02 16:27:26;;;;;;;;;3.50;1.00;;;;;14.12;59.27;99628.81;5059512;28;45751;-65
2021/11/02 16:29:51;;;;;;;;;3.00;1.00;;;;;14.11;59.55;99623.56;5061481;28;45533;-66
2021/11/02 16:32:19;;;;;;;;;4.00;3.75;;;;;14.07;59.16;99622.91;5061454;28;45485;-65
2021/11/02 16:34:44;;;;;;;;;2.75;2.75;;;;;14.02;59.32;99617.81;5061133;28;46340;-65
2021/11/02 16:37:09;;;;;;;;;2.00;2.00;;;;;14.02;59.57;99615.16;5061107;28;45622;-65
2021/11/02 16:39:35;;;;;;;;;4.00;2.50;;;;;14.01;59.48;99616.09;5061503;28;45445;-65
2021/11/02 16:42:05;;;;;;;;;2.00;2.00;;;;;13.99;59.48;99607.28;5061208;28;45597;-65
2021/11/02 16:44:33;;;;;;;;;3.00;3.00;;;;;14.00;59.64;99614.38;5056965;28;46117;-65
2021/11/02 16:47:10;;;;;;;;;2.00;2.00;;;;;14.00;59.39;99606.34;5053444;28;45561;-66
2021/11/02 16:49:37;;;;;;;;;2.75;2.50;;;;;13.98;59.54;99607.38;5061071;28;45652;-65
2021/11/02 16:52:07;;;;;;;;;4.25;4.25;;;;;13.98;60.15;99610.94;5061019;28;45499;-65
2021/11/02 16:54:39;;;;;;;;;3.00;3.00;;;;;13.94;59.73;99595.16;5060722;28;45446;-65